State Line, Indiana
Current Conditions -  °F | °C
As of 8:55 AM on Monday 24 Nov 2014 (Local Time) from KDNV Reporting Station
Overcast Overcast  
Wind Chill: 26°   Ceiling: 1100
Heat Index: 38°   Visibility: 10mi
Dew Point: 35°   Wind: 28mph
Humidity: 91%   Direction: 250°WSW
Pressure: 29.27"   Gusts: 41mph
Location:  40.19°N, 87.52°W
Report Text: KDNV 241355Z AUTO 25024G36KT 10SM OVC011 03/02 A2927 RMK AO2 T00310018
Loading
Personal Weather Stations






























Interactive Weather Map New forecast layout! Learn more

10-Day Weather Forecast

Advertisements
Track Severe Weather on mobile